createdAt,value
2019-05-18T06:28:37.537Z,1004.03
2019-05-18T06:29:37.446Z,1003.93
2019-05-18T06:30:37.362Z,1003.93
2019-05-18T06:31:37.259Z,1003.94
2019-05-18T06:32:37.180Z,1003.97
2019-05-18T06:33:37.077Z,1004.04
2019-05-18T06:34:36.984Z,1004.00
2019-05-18T06:35:36.892Z,1004.06
2019-05-18T06:36:36.803Z,1004.08
2019-05-18T06:37:36.713Z,1004.06
2019-05-18T06:38:36.635Z,1004.08
2019-05-18T06:39:36.547Z,1004.05
2019-05-18T06:40:36.431Z,1004.03
2019-05-18T06:41:36.343Z,1004.09
2019-05-18T06:42:36.253Z,1004.01
2019-05-18T06:43:36.156Z,1004.05
2019-05-18T06:44:36.066Z,1004.06
2019-05-18T06:45:35.985Z,1004.04
2019-05-18T06:46:35.881Z,1004.04
2019-05-18T06:47:35.788Z,1004.05
2019-05-18T06:48:35.699Z,1004.06
2019-05-18T06:49:35.606Z,1004.08
2019-05-18T06:50:35.513Z,1004.08
2019-05-18T06:51:35.423Z,1004.11
2019-05-18T06:52:35.332Z,1004.08
2019-05-18T06:53:35.243Z,1004.14
2019-05-18T06:54:35.150Z,1004.14
2019-05-18T06:55:35.058Z,1004.08
2019-05-18T06:56:34.969Z,1004.11
2019-05-18T06:57:34.875Z,1004.11
2019-05-18T06:58:34.786Z,1004.14
2019-05-18T06:59:34.696Z,1004.12
2019-05-18T07:00:34.603Z,1004.15
2019-05-18T07:01:34.582Z,1004.14
2019-05-18T07:02:34.433Z,1004.11
2019-05-18T07:03:34.348Z,1004.15
2019-05-18T07:04:34.242Z,1004.24
2019-05-18T07:05:34.152Z,1004.22
2019-05-18T07:06:34.061Z,1004.23
2019-05-18T07:07:33.970Z,1004.24
2019-05-18T07:08:33.879Z,1004.22
2019-05-18T07:09:33.797Z,1004.21
2019-05-18T07:10:33.700Z,1004.24
2019-05-18T07:11:33.608Z,1004.26
2019-05-18T07:12:33.520Z,1004.25
2019-05-18T07:13:33.450Z,1004.29
2019-05-18T07:14:33.338Z,1004.23
2019-05-18T07:15:33.245Z,1004.23
2019-05-18T07:16:33.158Z,1004.18
2019-05-18T07:17:34.650Z,1004.21
2019-05-18T07:18:32.984Z,1004.15
2019-05-18T07:19:32.888Z,1004.16
2019-05-18T07:20:32.799Z,1004.18
2019-05-18T07:21:32.708Z,1004.14
2019-05-18T07:22:32.621Z,1004.13
2019-05-18T07:23:32.559Z,1004.12
2019-05-18T07:24:32.483Z,1004.14
2019-05-18T07:25:32.345Z,1004.14
2019-05-18T07:26:32.256Z,1004.09
2019-05-18T07:27:32.168Z,1004.15
2019-05-18T07:28:32.075Z,1004.09
2019-05-18T07:29:31.984Z,1004.15
2019-05-18T07:30:31.892Z,1004.09
2019-05-18T07:31:31.811Z,1004.15
2019-05-18T07:32:31.712Z,1004.08
2019-05-18T07:33:31.633Z,1004.11
2019-05-18T07:34:31.534Z,1004.12
2019-05-18T07:35:31.443Z,1004.10
2019-05-18T07:36:31.356Z,1004.14
2019-05-18T07:37:31.274Z,1004.15
2019-05-18T07:38:31.173Z,1004.14
2019-05-18T07:39:31.084Z,1004.16
2019-05-18T07:40:30.997Z,1004.12
2019-05-18T07:41:44.520Z,1004.13
2019-05-18T07:42:30.815Z,1004.14
2019-05-18T07:43:30.725Z,1004.11
2019-05-18T07:44:30.635Z,1004.07
2019-05-18T07:45:30.543Z,1004.02
2019-05-18T07:46:30.531Z,1004.02
2019-05-18T07:47:30.360Z,1004.03
2019-05-18T07:48:30.274Z,1004.00
2019-05-18T07:49:30.184Z,1003.95
2019-05-18T07:50:30.097Z,1003.86
2019-05-18T07:51:37.165Z,1003.80
2019-05-18T07:52:29.915Z,1003.75
2019-05-18T07:53:29.828Z,1003.72
2019-05-18T07:54:29.740Z,1003.66
2019-05-18T07:55:29.646Z,1003.61
2019-05-18T07:56:29.567Z,1003.57
2019-05-18T07:57:29.465Z,1003.60
2019-05-18T07:58:29.376Z,1003.54
2019-05-18T09:18:21.915Z,1003.15
2019-05-18T09:19:21.825Z,1003.17
2019-05-18T09:20:21.735Z,1003.04
2019-05-18T09:21:21.646Z,1003.21
2019-05-18T09:22:23.392Z,1003.31
2019-05-18T09:23:21.470Z,1003.19
2019-05-18T09:24:21.380Z,1003.19
2019-05-18T09:25:21.296Z,1003.17
2019-05-18T09:26:21.208Z,1003.12
2019-05-18T09:27:21.116Z,1003.26
2019-05-18T09:28:21.027Z,1003.15
2019-05-18T09:29:20.953Z,1003.18
2019-05-18T09:30:20.854Z,1003.17
2019-05-18T09:31:20.767Z,1003.21
2019-05-18T09:32:20.677Z,1003.22
2019-05-18T09:33:20.588Z,1003.18
2019-05-18T09:34:20.499Z,1003.17
2019-05-18T09:35:20.413Z,1003.10
2019-05-18T09:36:20.393Z,1003.12
2019-05-18T09:37:20.252Z,1003.11
2019-05-18T09:38:20.150Z,1003.07
2019-05-18T09:39:20.060Z,1003.07
2019-05-18T09:40:19.975Z,1003.02
2019-05-18T09:41:19.889Z,1003.04
2019-05-18T09:42:19.798Z,1002.96
2019-05-18T09:43:19.712Z,1002.98
2019-05-18T09:44:19.630Z,1002.93
2019-05-18T09:45:19.577Z,1002.97
2019-05-18T09:46:19.451Z,1003.01
2019-05-18T09:47:19.363Z,1003.01
2019-05-18T09:48:19.274Z,1003.00
2019-05-18T09:49:19.193Z,1002.99
2019-05-18T09:50:19.104Z,1002.95
2019-05-18T09:51:19.022Z,1002.89
2019-05-18T09:52:18.929Z,1002.87
2019-05-18T09:53:18.846Z,1002.88
2019-05-18T09:54:18.757Z,1002.92
2019-05-18T09:55:18.671Z,1002.92
2019-05-18T09:56:18.583Z,1002.90
2019-05-18T09:57:18.499Z,1002.87
2019-05-18T09:58:18.411Z,1002.77
2019-05-18T09:59:18.358Z,1002.80
2019-05-18T10:00:18.292Z,1002.78
2019-05-18T10:01:18.151Z,1002.82
2019-05-18T10:02:18.125Z,1002.71
2019-05-18T10:03:17.982Z,1002.83
2019-05-18T10:04:17.934Z,1002.81
2019-05-18T10:05:17.821Z,1002.87
2019-05-18T10:06:17.719Z,1002.86
2019-05-18T10:07:17.639Z,1002.80
2019-05-18T10:08:17.550Z,1002.84
2019-05-18T10:09:17.514Z,1002.77
2019-05-18T10:10:17.381Z,1002.71
2019-05-18T10:11:17.294Z,1002.70
2019-05-18T10:12:17.209Z,1002.82
2019-05-18T10:13:17.124Z,1002.67
2019-05-18T10:14:17.040Z,1002.83
2019-05-18T10:15:16.956Z,1002.75
2019-05-18T10:16:16.866Z,1002.74
2019-05-18T10:17:16.787Z,1002.66
2019-05-18T10:18:16.698Z,1002.72
2019-05-18T10:19:16.645Z,1002.65
2019-05-18T10:20:16.531Z,1002.71
2019-05-18T10:21:16.454Z,1002.75
2019-05-18T10:22:16.361Z,1002.63
2019-05-18T10:23:16.336Z,1002.75
2019-05-18T10:24:16.270Z,1002.66
2019-05-18T10:25:16.109Z,1002.65
2019-05-18T10:26:16.030Z,1002.62
2019-05-18T10:27:15.942Z,1002.74
2019-05-18T10:28:15.858Z,1002.65
2019-05-18T10:29:15.772Z,1002.65
2019-05-18T10:30:15.693Z,1002.70
2019-05-18T10:31:15.609Z,1002.59
2019-05-18T10:32:15.526Z,1002.59
2019-05-18T10:33:15.444Z,1002.62
2019-05-18T10:34:15.358Z,1002.58
2019-05-18T10:35:15.275Z,1002.51
2019-05-18T10:36:15.194Z,1002.68
2019-05-18T10:37:15.110Z,1002.36
2019-05-18T10:38:15.026Z,1002.51
2019-05-18T10:39:14.942Z,1002.47
2019-05-18T10:40:14.860Z,1002.47
2019-05-18T10:41:14.776Z,1002.48
2019-05-18T10:42:14.694Z,1002.31
2019-05-18T10:43:14.613Z,1002.30
2019-05-18T10:44:14.532Z,1002.38
2019-05-18T10:45:14.447Z,1002.40
2019-05-18T10:46:14.363Z,1002.40
2019-05-18T10:47:14.304Z,1002.36
2019-05-18T10:48:14.323Z,1002.37
2019-05-18T10:49:14.117Z,1002.40
2019-05-18T10:50:14.036Z,1002.33
2019-05-18T10:51:13.959Z,1002.37
2019-05-18T10:52:13.869Z,1002.28
2019-05-18T10:53:27.756Z,1002.34
2019-05-18T10:54:13.705Z,1002.46
2019-05-18T10:55:13.623Z,1002.34
2019-05-18T10:56:13.540Z,1002.33
2019-05-18T10:57:13.461Z,1002.28
2019-05-18T10:58:13.376Z,1002.23
2019-05-18T10:59:13.293Z,1002.23
2019-05-18T11:00:13.213Z,1002.11
2019-05-18T11:01:13.125Z,1002.20
2019-05-18T11:02:13.043Z,1002.20
2019-05-18T11:03:12.962Z,1002.17
2019-05-18T11:04:12.881Z,1002.12
2019-05-18T11:05:12.808Z,1002.11
2019-05-18T11:06:12.712Z,1002.08
2019-05-18T11:07:12.630Z,1002.11
2019-05-18T11:08:12.546Z,1002.13
2019-05-18T11:09:12.461Z,1002.11
2019-05-18T11:10:12.381Z,1002.13
2019-05-18T11:11:12.295Z,1002.06
2019-05-18T11:12:12.267Z,1002.01
2019-05-18T11:13:12.208Z,1002.09
2019-05-18T11:14:12.046Z,1002.05
2019-05-18T11:15:11.963Z,1001.97
2019-05-18T11:16:11.893Z,1001.98
2019-05-18T11:17:11.796Z,1001.92
2019-05-18T11:18:11.714Z,1001.95
2019-05-18T11:19:11.630Z,1001.96
2019-05-18T11:20:11.572Z,1002.00
2019-05-18T11:21:11.471Z,1001.98
2019-05-18T11:22:11.383Z,1001.96
2019-05-18T11:23:11.297Z,1001.77
2019-05-18T11:24:11.216Z,1001.95
2019-05-18T11:25:11.136Z,1001.86
2019-05-18T11:26:11.050Z,1002.01
2019-05-18T11:27:10.970Z,1001.87
2019-05-18T11:29:10.801Z,1001.86
2019-05-18T12:07:07.421Z,1001.90
2019-05-18T12:08:07.327Z,1001.76
2019-05-18T12:09:07.238Z,1001.93
2019-05-18T12:10:07.148Z,1001.85
2019-05-18T12:11:07.059Z,1001.83
2019-05-18T12:12:06.971Z,1001.76
2019-05-18T12:13:07.688Z,1001.75
2019-05-18T12:14:06.800Z,1001.76
